Time;durP1;ratioP1;P1;durP2;ratioP2;P2;SDS_P1;SDS_P2;PMS_P1;PMS_P2;Temp;Humidity;BMP_temperature;BMP_pressure;BME280_temperature;BME280_humidity;BME280_pressure;Samples;Min_cycle;Max_cycle;Signal;HPM_P1;HPM_P2
2022/05/19 00:00:35;;;;;;;;;;;12.70;99.90;;;;;;5114973;28;20381;-76
2022/05/19 00:03:02;;;;;;;;;;;12.80;99.90;;;;;;5100136;28;19912;-77
2022/05/19 00:05:29;;;;;;;;;;;12.80;99.90;;;;;;5082448;28;19941;-76
2022/05/19 00:07:55;;;;;;;;;;;12.80;99.90;;;;;;5088950;28;19919;-77
2022/05/19 00:10:22;;;;;;;;;;;12.80;99.90;;;;;;5114761;28;19907;-77
2022/05/19 00:12:49;;;;;;;;;;;12.90;99.90;;;;;;5115020;28;19947;-77
2022/05/19 00:15:15;;;;;;;;;;;12.80;99.90;;;;;;5114795;28;19914;-77
2022/05/19 00:17:42;;;;;;;;;;;12.90;99.90;;;;;;5114383;28;20019;-76
2022/05/19 00:20:09;;;;;;;;;;;12.90;99.90;;;;;;5114655;28;19914;-77
2022/05/19 00:22:36;;;;;;;;;;;13.00;99.90;;;;;;5114839;28;19930;-77
2022/05/19 00:25:03;;;;;;;;;;;13.10;99.90;;;;;;5114462;28;19915;-77
2022/05/19 00:27:29;;;;;;;;;;;13.10;99.90;;;;;;5114763;28;19916;-77
2022/05/19 00:29:56;;;;;;;;;;;13.10;99.90;;;;;;5114803;28;19987;-76
2022/05/19 00:32:23;;;;;;;;;;;13.20;99.90;;;;;;5115018;28;19943;-76
2022/05/19 00:34:49;;;;;;;;;;;13.20;99.90;;;;;;5115361;28;19908;-75
2022/05/19 00:37:16;;;;;;;;;;;13.20;99.90;;;;;;5114425;28;19908;-75
2022/05/19 00:39:43;;;;;;;;;;;13.30;99.90;;;;;;5114229;28;20312;-75
2022/05/19 00:45:00;;;;;;;;;;;13.30;99.90;;;;;;5113811;28;20000;-76
2022/05/19 00:47:28;;;;;;;;;;;13.40;99.90;;;;;;5114258;28;20358;-76
2022/05/19 00:49:55;;;;;;;;;;;13.40;99.90;;;;;;5112692;28;19961;-75
2022/05/19 00:52:24;;;;;;;;;;;13.40;99.90;;;;;;5114165;28;19926;-77
2022/05/19 00:54:53;;;;;;;;;;;13.50;99.90;;;;;;5113782;28;19912;-76
2022/05/19 00:57:22;;;;;;;;;;;13.60;99.90;;;;;;5114097;28;19930;-76
2022/05/19 01:00:04;;;;;;;;;;;13.70;99.90;;;;;;5113852;28;20400;-76
2022/05/19 01:02:36;;;;;;;;;;;13.90;99.90;;;;;;5113931;28;19911;-76
2022/05/19 01:05:08;;;;;;;;;;;14.00;99.90;;;;;;5113835;28;20358;-76
2022/05/19 01:07:53;;;;;;;;;;;14.30;99.90;;;;;;5113619;28;19967;-77
2022/05/19 01:10:19;;;;;;;;;;;14.60;99.90;;;;;;5112503;28;19961;-75
2022/05/19 01:12:48;;;;;;;;;;;15.10;99.90;;;;;;5114327;28;19914;-76
2022/05/19 01:15:15;;;;;;;;;;;15.10;99.90;;;;;;5112697;28;19930;-76
2022/05/19 01:17:42;;;;;;;;;;;15.30;99.90;;;;;;5113651;28;19919;-75
2022/05/19 01:20:12;;;;;;;;;;;15.10;99.60;;;;;;5113810;28;19915;-76
2022/05/19 01:22:47;;;;;;;;;;;15.00;99.60;;;;;;5113804;28;19970;-78
2022/05/19 01:25:32;;;;;;;;;;;14.80;99.90;;;;;;5113740;28;19907;-79
2022/05/19 01:27:59;;;;;;;;;;;14.70;99.80;;;;;;5113825;28;19920;-78
2022/05/19 01:30:26;;;;;;;;;;;14.50;99.90;;;;;;5113486;28;19908;-76
2022/05/19 01:32:56;;;;;;;;;;;14.50;99.90;;;;;;5113578;28;19961;-75
2022/05/19 01:35:23;;;;;;;;;;;14.60;99.90;;;;;;5113786;28;20364;-76
2022/05/19 01:37:50;;;;;;;;;;;14.70;99.90;;;;;;5113634;28;19911;-76
2022/05/19 01:40:48;;;;;;;;;;;14.80;99.90;;;;;;5113615;28;20323;-75
2022/05/19 01:43:21;;;;;;;;;;;14.70;99.90;;;;;;5079216;28;19994;-74
2022/05/19 01:46:01;;;;;;;;;;;14.90;99.90;;;;;;5113395;28;19961;-76
2022/05/19 01:48:30;;;;;;;;;;;14.90;99.90;;;;;;5113760;28;20370;-75
2022/05/19 01:51:03;;;;;;;;;;;14.90;99.90;;;;;;5113423;28;19920;-75
2022/05/19 01:53:42;;;;;;;;;;;14.90;99.90;;;;;;5113540;28;19965;-75
2022/05/19 01:56:12;;;;;;;;;;;14.90;99.90;;;;;;5115583;28;19908;-75
2022/05/19 01:58:41;;;;;;;;;;;14.90;99.90;;;;;;5117607;28;19915;-75
2022/05/19 02:01:08;;;;;;;;;;;15.10;99.90;;;;;;5117556;28;19908;-76
2022/05/19 02:03:53;;;;;;;;;;;15.10;99.90;;;;;;5117243;28;20289;-74
2022/05/19 02:06:23;;;;;;;;;;;15.10;99.90;;;;;;5117235;28;19944;-75
2022/05/19 02:08:52;;;;;;;;;;;15.20;99.90;;;;;;5117144;28;19916;-75
2022/05/19 02:11:33;;;;;;;;;;;15.20;99.90;;;;;;5117149;28;19908;-75
2022/05/19 02:14:03;;;;;;;;;;;15.20;99.90;;;;;;5101773;28;19913;-75
2022/05/19 02:16:30;;;;;;;;;;;15.20;99.90;;;;;;5089553;28;19943;-74
2022/05/19 02:18:58;;;;;;;;;;;15.10;99.90;;;;;;5096692;28;20366;-76
2022/05/19 02:21:24;;;;;;;;;;;15.20;99.90;;;;;;5096541;28;19916;-76
2022/05/19 02:23:51;;;;;;;;;;;15.20;99.90;;;;;;5096320;28;20013;-76
2022/05/19 02:26:17;;;;;;;;;;;15.30;99.90;;;;;;5094983;28;19914;-75
2022/05/19 02:28:44;;;;;;;;;;;15.30;99.80;;;;;;5096392;28;19916;-75
2022/05/19 02:31:11;;;;;;;;;;;15.30;99.50;;;;;;5096575;28;19908;-75
2022/05/19 02:33:37;;;;;;;;;;;15.30;99.80;;;;;;5096159;28;19923;-76
2022/05/19 02:36:04;;;;;;;;;;;15.30;99.70;;;;;;5096368;28;20377;-75
2022/05/19 02:38:32;;;;;;;;;;;15.30;99.30;;;;;;5096171;28;19958;-74
2022/05/19 02:40:58;;;;;;;;;;;15.30;99.50;;;;;;5096209;28;20277;-75
2022/05/19 02:43:25;;;;;;;;;;;15.30;99.40;;;;;;5096267;28;19998;-75
2022/05/19 02:45:52;;;;;;;;;;;15.30;99.30;;;;;;5095957;28;20398;-75
2022/05/19 02:48:19;;;;;;;;;;;15.40;99.40;;;;;;5096079;28;19916;-75
2022/05/19 02:50:46;;;;;;;;;;;15.40;99.20;;;;;;5096109;28;19974;-76
2022/05/19 02:53:13;;;;;;;;;;;15.50;99.10;;;;;;5095940;28;20003;-74
2022/05/19 02:55:40;;;;;;;;;;;15.50;99.10;;;;;;5095819;28;20004;-75
2022/05/19 02:58:08;;;;;;;;;;;15.60;99.30;;;;;;5095991;28;19915;-75
2022/05/19 03:00:35;;;;;;;;;;;15.60;99.30;;;;;;5095801;28;19915;-75
2022/05/19 03:03:02;;;;;;;;;;;15.70;99.10;;;;;;5095856;28;19908;-75
2022/05/19 03:05:30;;;;;;;;;;;15.70;99.20;;;;;;5095488;28;19908;-75
2022/05/19 03:07:56;;;;;;;;;;;15.70;99.60;;;;;;5094569;28;19961;-75
2022/05/19 03:10:24;;;;;;;;;;;15.70;99.10;;;;;;5095569;28;19915;-75
2022/05/19 03:12:54;;;;;;;;;;;15.70;99.90;;;;;;5095467;28;19908;-76
2022/05/19 03:15:21;;;;;;;;;;;15.70;98.70;;;;;;5095759;28;20320;-75
2022/05/19 03:17:48;;;;;;;;;;;15.80;98.50;;;;;;5095331;28;19908;-75
2022/05/19 03:20:15;;;;;;;;;;;15.80;98.80;;;;;;5095395;28;19907;-75
2022/05/19 03:22:41;;;;;;;;;;;15.90;98.40;;;;;;5095438;28;20309;-75
2022/05/19 03:25:08;;;;;;;;;;;16.00;97.50;;;;;;5095027;28;19908;-75
2022/05/19 03:27:36;;;;;;;;;;;16.00;97.70;;;;;;5095076;28;20369;-75
2022/05/19 03:30:04;;;;;;;;;;;15.90;97.50;;;;;;5095333;28;19957;-75
2022/05/19 03:32:31;;;;;;;;;;;15.90;97.80;;;;;;5095106;28;19953;-76
2022/05/19 03:34:57;;;;;;;;;;;15.90;96.20;;;;;;5094976;28;19922;-76
2022/05/19 03:37:24;;;;;;;;;;;15.90;96.40;;;;;;5095026;28;19930;-75
2022/05/19 03:39:51;;;;;;;;;;;15.90;96.50;;;;;;5094549;28;20286;-75
2022/05/19 03:42:18;;;;;;;;;;;15.90;98.10;;;;;;5094864;28;19908;-76
2022/05/19 03:44:44;;;;;;;;;;;15.80;97.40;;;;;;5094905;28;19908;-76
2022/05/19 03:47:11;;;;;;;;;;;15.90;97.30;;;;;;5094774;28;19912;-76
2022/05/19 03:49:38;;;;;;;;;;;16.10;97.10;;;;;;5094753;28;19919;-75
2022/05/19 03:52:05;;;;;;;;;;;16.10;96.50;;;;;;5094580;28;20358;-75
2022/05/19 03:54:31;;;;;;;;;;;16.10;97.60;;;;;;5093242;28;20365;-75
2022/05/19 03:56:58;;;;;;;;;;;16.10;97.30;;;;;;5094819;28;19908;-75
2022/05/19 03:59:25;;;;;;;;;;;16.20;97.00;;;;;;5094608;28;19908;-77
2022/05/19 04:01:51;;;;;;;;;;;16.20;96.70;;;;;;5094215;28;19941;-75
2022/05/19 04:04:18;;;;;;;;;;;16.10;97.10;;;;;;5094592;28;19916;-76
2022/05/19 04:06:45;;;;;;;;;;;15.90;97.80;;;;;;5094293;28;19955;-76
2022/05/19 04:09:12;;;;;;;;;;;16.00;97.70;;;;;;5094154;28;20368;-76
2022/05/19 04:11:39;;;;;;;;;;;16.00;97.00;;;;;;5094209;28;19908;-77
2022/05/19 04:14:07;;;;;;;;;;;16.00;97.00;;;;;;5094592;28;19934;-74
2022/05/19 04:16:33;;;;;;;;;;;16.00;96.30;;;;;;5094270;28;19908;-75
2022/05/19 04:19:00;;;;;;;;;;;15.90;96.60;;;;;;5094176;28;19915;-75
2022/05/19 04:21:27;;;;;;;;;;;15.90;96.60;;;;;;5094263;28;19955;-75
2022/05/19 04:23:53;;;;;;;;;;;15.80;96.90;;;;;;5093777;28;20320;-75
2022/05/19 04:26:20;;;;;;;;;;;15.80;97.20;;;;;;5094213;28;19931;-75
2022/05/19 04:28:47;;;;;;;;;;;16.00;96.40;;;;;;5093980;28;19923;-75
2022/05/19 04:31:13;;;;;;;;;;;16.10;96.40;;;;;;5093993;28;19962;-75
2022/05/19 04:33:40;;;;;;;;;;;16.30;97.10;;;;;;5093772;28;19916;-75
2022/05/19 04:36:07;;;;;;;;;;;16.30;96.90;;;;;;5093987;28;19908;-75
2022/05/19 04:38:33;;;;;;;;;;;16.10;96.80;;;;;;5093882;28;20270;-75
2022/05/19 04:41:01;;;;;;;;;;;16.10;97.00;;;;;;5094133;28;19909;-75
2022/05/19 04:43:28;;;;;;;;;;;16.20;97.30;;;;;;5093987;28;19931;-75
2022/05/19 04:45:56;;;;;;;;;;;16.20;96.70;;;;;;5093687;28;19912;-75
2022/05/19 04:48:23;;;;;;;;;;;16.30;96.70;;;;;;5093705;28;20381;-76
2022/05/19 04:50:57;;;;;;;;;;;16.30;96.30;;;;;;5093674;28;19985;-75
2022/05/19 04:53:24;;;;;;;;;;;16.20;96.20;;;;;;5093738;28;19923;-76
2022/05/19 04:55:52;;;;;;;;;;;16.10;96.70;;;;;;5093325;28;20394;-76
2022/05/19 04:58:19;;;;;;;;;;;16.20;96.40;;;;;;5093718;28;19934;-74
2022/05/19 05:00:50;;;;;;;;;;;16.30;96.60;;;;;;5093695;28;19908;-74
2022/05/19 05:03:17;;;;;;;;;;;16.20;96.60;;;;;;5093662;28;20331;-75
2022/05/19 05:05:44;;;;;;;;;;;16.10;96.70;;;;;;5093347;28;20343;-75
2022/05/19 05:08:10;;;;;;;;;;;16.20;97.00;;;;;;5093428;28;20282;-75
2022/05/19 05:10:37;;;;;;;;;;;16.10;97.00;;;;;;5093368;28;19995;-75
2022/05/19 05:13:04;;;;;;;;;;;16.10;96.50;;;;;;5093311;28;19951;-74
2022/05/19 05:15:31;;;;;;;;;;;16.10;96.50;;;;;;5092823;28;20033;-74
2022/05/19 05:17:58;;;;;;;;;;;16.10;96.80;;;;;;5093249;28;19990;-75
2022/05/19 05:20:25;;;;;;;;;;;16.10;96.50;;;;;;5093356;28;19908;-75
2022/05/19 05:22:51;;;;;;;;;;;16.10;96.80;;;;;;5093226;28;19919;-75
2022/05/19 05:25:18;;;;;;;;;;;16.30;96.60;;;;;;5093141;28;20290;-75
2022/05/19 05:27:44;;;;;;;;;;;16.30;96.80;;;;;;5092953;28;19937;-75
2022/05/19 05:30:12;;;;;;;;;;;16.30;96.10;;;;;;5094075;28;19919;-75
2022/05/19 05:32:38;;;;;;;;;;;16.20;96.10;;;;;;5097324;28;19908;-75
2022/05/19 05:35:06;;;;;;;;;;;16.10;96.50;;;;;;5097463;28;19943;-75
2022/05/19 05:37:33;;;;;;;;;;;16.20;96.50;;;;;;5097177;28;19912;-75
2022/05/19 05:39:59;;;;;;;;;;;16.20;96.60;;;;;;5097248;28;19908;-74
2022/05/19 05:42:26;;;;;;;;;;;16.10;97.00;;;;;;5097230;28;19908;-75
2022/05/19 05:44:53;;;;;;;;;;;16.00;97.00;;;;;;5097267;28;19912;-73
2022/05/19 05:47:19;;;;;;;;;;;15.90;97.40;;;;;;5097128;28;20366;-75
2022/05/19 05:49:46;;;;;;;;;;;15.90;97.10;;;;;;5096773;28;19959;-75
2022/05/19 05:52:13;;;;;;;;;;;15.90;97.00;;;;;;5097140;28;19920;-75
2022/05/19 05:54:39;;;;;;;;;;;16.00;96.50;;;;;;5096952;28;19912;-75
2022/05/19 05:57:06;;;;;;;;;;;16.00;96.60;;;;;;5096914;28;20320;-75
2022/05/19 05:59:33;;;;;;;;;;;16.00;96.80;;;;;;5096801;28;19909;-76
2022/05/19 06:01:59;;;;;;;;;;;16.00;97.40;;;;;;5096855;28;20299;-75
2022/05/19 06:04:26;;;;;;;;;;;16.00;97.40;;;;;;5096822;28;19915;-76
2022/05/19 06:06:53;;;;;;;;;;;15.90;97.40;;;;;;5096744;28;19908;-75
2022/05/19 06:09:19;;;;;;;;;;;15.80;97.60;;;;;;5096465;28;19964;-75
2022/05/19 06:11:46;;;;;;;;;;;15.80;98.20;;;;;;5096428;28;19934;-76
2022/05/19 06:14:12;;;;;;;;;;;15.70;98.20;;;;;;5096606;28;20000;-75
2022/05/19 06:16:39;;;;;;;;;;;15.70;98.40;;;;;;5096656;28;19908;-75
2022/05/19 06:19:06;;;;;;;;;;;15.70;97.60;;;;;;5096619;28;19958;-75
2022/05/19 06:21:36;;;;;;;;;;;15.70;98.10;;;;;;5096382;28;19908;-76
2022/05/19 06:24:08;;;;;;;;;;;15.60;98.00;;;;;;5096382;28;19991;-76
2022/05/19 06:26:35;;;;;;;;;;;15.50;99.20;;;;;;5096489;28;19968;-77
2022/05/19 06:29:02;;;;;;;;;;;15.50;98.60;;;;;;5096500;28;20366;-75
2022/05/19 06:31:28;;;;;;;;;;;15.40;99.00;;;;;;5096288;28;19954;-76
2022/05/19 06:33:55;;;;;;;;;;;15.40;99.00;;;;;;5096410;28;20381;-76
2022/05/19 06:36:22;;;;;;;;;;;15.40;98.80;;;;;;5096221;28;19979;-75
2022/05/19 06:38:48;;;;;;;;;;;15.40;99.00;;;;;;5096013;28;19995;-76
2022/05/19 06:43:59;;;;;;;;;;;15.30;98.80;;;;;;5096176;28;19931;-76
2022/05/19 06:46:26;;;;;;;;;;;15.30;98.90;;;;;;5096081;28;19909;-76
2022/05/19 06:48:53;;;;;;;;;;;15.30;99.40;;;;;;5095968;28;19961;-77
2022/05/19 06:51:19;;;;;;;;;;;15.20;99.10;;;;;;5094116;28;20437;-77
2022/05/19 06:53:46;;;;;;;;;;;15.10;98.90;;;;;;5093485;28;19908;-77
2022/05/19 06:56:12;;;;;;;;;;;15.10;98.40;;;;;;5093700;28;19908;-76
2022/05/19 06:58:39;;;;;;;;;;;15.10;98.30;;;;;;5094090;28;19955;-75
2022/05/19 07:01:06;;;;;;;;;;;15.10;98.50;;;;;;5093706;28;19912;-75
2022/05/19 07:03:32;;;;;;;;;;;15.00;98.90;;;;;;5093320;28;19908;-75
2022/05/19 07:05:59;;;;;;;;;;;15.00;98.60;;;;;;5093205;28;19919;-74
2022/05/19 07:08:26;;;;;;;;;;;14.90;98.40;;;;;;5093329;28;19920;-75
2022/05/19 07:10:53;;;;;;;;;;;14.90;98.50;;;;;;5093564;28;19912;-75
2022/05/19 07:13:20;;;;;;;;;;;14.80;98.80;;;;;;5093447;28;19919;-75
2022/05/19 07:15:47;;;;;;;;;;;14.80;99.20;;;;;;5093154;28;19913;-76
2022/05/19 07:18:13;;;;;;;;;;;14.80;99.30;;;;;;5092958;28;20002;-75
2022/05/19 07:20:48;;;;;;;;;;;14.80;99.40;;;;;;5091823;28;20078;-77
2022/05/19 07:23:19;;;;;;;;;;;14.80;99.10;;;;;;5093180;28;19950;-75
2022/05/19 07:25:46;;;;;;;;;;;14.70;99.30;;;;;;5092886;28;19915;-76
2022/05/19 07:28:14;;;;;;;;;;;14.70;99.50;;;;;;5093074;28;19924;-77
2022/05/19 07:30:41;;;;;;;;;;;14.70;99.60;;;;;;5092525;28;20428;-76
2022/05/19 07:33:08;;;;;;;;;;;14.70;99.90;;;;;;5092931;28;19919;-74
2022/05/19 07:35:34;;;;;;;;;;;14.70;99.90;;;;;;5092701;28;20485;-75
2022/05/19 07:38:02;;;;;;;;;;;14.70;99.90;;;;;;5092580;28;20256;-75
2022/05/19 07:40:29;;;;;;;;;;;14.70;99.90;;;;;;5092927;28;20019;-76
2022/05/19 07:43:35;;;;;;;;;;;14.60;99.90;;;;;;5092890;28;20023;-75
2022/05/19 07:45:42;;;;;;;;;;;14.60;99.90;;;;;;5092500;28;20259;-75
2022/05/19 07:48:08;;;;;;;;;;;14.60;99.90;;;;;;5092630;28;19930;-76
2022/05/19 07:50:35;;;;;;;;;;;14.60;99.90;;;;;;5092578;28;20019;-76
2022/05/19 07:53:02;;;;;;;;;;;14.60;99.90;;;;;;5092176;28;19916;-76
2022/05/19 07:55:28;;;;;;;;;;;14.60;99.90;;;;;;5092285;28;19915;-76
2022/05/19 07:57:56;;;;;;;;;;;14.60;99.90;;;;;;5091814;28;19983;-76
2022/05/19 08:00:23;;;;;;;;;;;14.60;99.90;;;;;;5091089;28;19914;-75
2022/05/19 08:02:49;;;;;;;;;;;14.60;99.90;;;;;;5092415;28;20282;-75
2022/05/19 08:05:16;;;;;;;;;;;14.60;99.90;;;;;;5092470;28;19922;-76
2022/05/19 08:07:42;;;;;;;;;;;14.70;99.90;;;;;;5091761;28;19912;-76
2022/05/19 08:10:23;;;;;;;;;;;14.70;99.90;;;;;;5091838;28;19912;-76
2022/05/19 08:15:36;;;;;;;;;;;14.60;99.90;;;;;;5092320;28;20007;-76
2022/05/19 08:18:05;;;;;;;;;;;14.60;99.90;;;;;;5092266;28;19919;-76
2022/05/19 08:20:32;;;;;;;;;;;14.60;99.90;;;;;;5092186;28;19931;-75
2022/05/19 08:22:59;;;;;;;;;;;14.50;99.90;;;;;;5091530;28;19909;-75
2022/05/19 08:25:26;;;;;;;;;;;14.50;99.90;;;;;;5092108;28;19908;-76
2022/05/19 08:28:03;;;;;;;;;;;14.40;99.90;;;;;;5091612;28;20011;-76
2022/05/19 08:30:30;;;;;;;;;;;14.40;99.90;;;;;;5092108;28;19935;-76
2022/05/19 08:32:56;;;;;;;;;;;14.40;99.90;;;;;;5091979;28;19999;-77
2022/05/19 08:35:23;;;;;;;;;;;14.40;99.90;;;;;;5091598;28;19908;-74
2022/05/19 08:37:50;;;;;;;;;;;14.40;99.90;;;;;;5091430;28;19916;-75
2022/05/19 08:40:18;;;;;;;;;;;14.40;99.90;;;;;;5091658;28;19908;-76
2022/05/19 08:42:47;;;;;;;;;;;14.30;99.90;;;;;;5091837;28;19953;-75
2022/05/19 08:45:24;;;;;;;;;;;14.30;99.90;;;;;;5090518;28;20282;-75
2022/05/19 08:47:57;;;;;;;;;;;14.30;99.90;;;;;;5091542;28;20015;-76
2022/05/19 08:50:29;;;;;;;;;;;14.30;99.90;;;;;;5091111;28;20375;-75
2022/05/19 08:52:56;;;;;;;;;;;14.40;99.90;;;;;;5091461;28;20416;-75
2022/05/19 08:55:23;;;;;;;;;;;14.40;99.90;;;;;;5091654;28;19968;-76
2022/05/19 08:58:21;;;;;;;;;;;14.40;99.90;;;;;;5091295;28;19908;-76
2022/05/19 09:01:11;;;;;;;;;;;14.40;99.90;;;;;;5078858;28;19912;-76
2022/05/19 09:03:41;;;;;;;;;;;14.30;99.90;;;;;;5087906;28;19953;-76
2022/05/19 09:06:31;;;;;;;;;;;14.30;99.90;;;;;;5091776;28;19995;-77
2022/05/19 09:09:10;;;;;;;;;;;14.40;99.90;;;;;;5090041;28;19916;-76
2022/05/19 09:11:49;;;;;;;;;;;14.40;99.90;;;;;;5093307;28;20378;-76
2022/05/19 09:14:16;;;;;;;;;;;14.40;99.90;;;;;;5093452;28;19991;-76
2022/05/19 09:16:43;;;;;;;;;;;14.30;99.90;;;;;;5093541;28;19931;-76
2022/05/19 09:19:12;;;;;;;;;;;14.30;99.90;;;;;;5093199;28;19995;-76
2022/05/19 09:21:41;;;;;;;;;;;14.30;99.90;;;;;;5093142;28;20280;-75
2022/05/19 09:24:10;;;;;;;;;;;14.20;99.90;;;;;;5093232;28;19908;-75
2022/05/19 09:26:52;;;;;;;;;;;14.20;99.90;;;;;;5092207;28;19978;-76
2022/05/19 09:29:28;;;;;;;;;;;14.10;99.90;;;;;;5093196;28;19923;-77
2022/05/19 09:31:56;;;;;;;;;;;14.10;99.90;;;;;;5093092;28;20045;-76
2022/05/19 09:34:26;;;;;;;;;;;14.10;99.90;;;;;;5093200;28;19915;-76
2022/05/19 09:37:01;;;;;;;;;;;14.00;99.90;;;;;;5093048;28;20006;-76
2022/05/19 09:39:33;;;;;;;;;;;14.00;99.90;;;;;;5093047;28;19908;-75
2022/05/19 09:42:01;;;;;;;;;;;14.00;99.90;;;;;;5093129;28;20004;-76
2022/05/19 09:44:32;;;;;;;;;;;13.90;99.90;;;;;;5093004;28;20411;-77
2022/05/19 09:46:59;;;;;;;;;;;13.90;99.90;;;;;;5093433;28;19948;-76
2022/05/19 09:49:32;;;;;;;;;;;14.00;99.90;;;;;;5082756;28;19923;-77
2022/05/19 09:52:03;;;;;;;;;;;14.00;99.90;;;;;;5071826;28;20460;-76
2022/05/19 09:54:31;;;;;;;;;;;14.00;99.90;;;;;;5072839;28;19908;-77
2022/05/19 09:57:13;;;;;;;;;;;14.00;99.90;;;;;;5072797;28;19916;-76
2022/05/19 09:59:47;;;;;;;;;;;13.90;99.90;;;;;;5072795;28;19909;-75
2022/05/19 10:02:21;;;;;;;;;;;14.00;99.90;;;;;;5072826;28;19912;-76
2022/05/19 10:04:55;;;;;;;;;;;13.90;99.90;;;;;;5072135;28;21402;-76
2022/05/19 10:07:24;;;;;;;;;;;14.00;99.90;;;;;;5072327;28;19959;-76
2022/05/19 10:09:52;;;;;;;;;;;14.00;99.90;;;;;;5072471;28;19912;-76
2022/05/19 10:12:24;;;;;;;;;;;13.90;99.90;;;;;;5072680;28;19909;-77
2022/05/19 10:14:59;;;;;;;;;;;14.00;99.90;;;;;;5072796;28;20279;-77
2022/05/19 10:17:50;;;;;;;;;;;14.00;99.90;;;;;;5075205;28;19914;-76
2022/05/19 10:20:24;;;;;;;;;;;13.90;99.90;;;;;;5076200;28;19909;-76
2022/05/19 10:23:09;;;;;;;;;;;13.90;99.90;;;;;;5075667;28;20194;-76
2022/05/19 10:25:51;;;;;;;;;;;13.90;99.90;;;;;;5075991;28;19931;-77
2022/05/19 10:31:38;;;;;;;;;;;13.90;99.90;;;;;;5076434;28;19952;-77
2022/05/19 10:34:10;;;;;;;;;;;13.90;99.90;;;;;;5071142;28;20359;-76
2022/05/19 10:36:55;;;;;;;;;;;13.90;99.90;;;;;;5075507;28;20278;-76
2022/05/19 10:39:29;;;;;;;;;;;13.80;99.90;;;;;;5076096;28;19909;-77
2022/05/19 10:42:10;;;;;;;;;;;13.90;99.90;;;;;;5076114;28;19989;-77
2022/05/19 10:44:45;;;;;;;;;;;13.80;99.90;;;;;;5075787;28;19909;-77
2022/05/19 10:47:27;;;;;;;;;;;13.80;99.90;;;;;;5075847;28;19912;-76
2022/05/19 10:50:32;;;;;;;;;;;13.80;99.90;;;;;;5075447;28;19964;-76
2022/05/19 10:53:17;;;;;;;;;;;13.70;99.90;;;;;;5053358;28;19919;-77
2022/05/19 10:55:43;;;;;;;;;;;13.70;99.90;;;;;;5053394;28;20020;-76
2022/05/19 10:58:28;;;;;;;;;;;13.70;99.90;;;;;;5066851;28;19922;-78
2022/05/19 11:01:04;;;;;;;;;;;13.70;99.90;;;;;;5075673;28;19912;-77
2022/05/19 11:03:34;;;;;;;;;;;13.70;99.90;;;;;;5075366;28;19915;-76
2022/05/19 11:06:08;;;;;;;;;;;13.70;99.90;;;;;;5075047;28;19924;-76
2022/05/19 11:08:44;;;;;;;;;;;13.60;99.90;;;;;;5075326;28;20383;-75
2022/05/19 11:11:30;;;;;;;;;;;13.60;99.90;;;;;;5075464;28;19908;-75
2022/05/19 11:14:10;;;;;;;;;;;13.60;99.90;;;;;;5075175;28;19961;-75
2022/05/19 11:17:00;;;;;;;;;;;13.60;99.90;;;;;;5075556;28;20375;-76
2022/05/19 11:19:33;;;;;;;;;;;13.50;99.90;;;;;;5075411;28;19954;-77
2022/05/19 11:22:06;;;;;;;;;;;13.60;99.90;;;;;;5074566;28;19908;-76
2022/05/19 11:27:30;;;;;;;;;;;13.60;99.90;;;;;;5063307;28;19908;-75
2022/05/19 11:29:59;;;;;;;;;;;13.50;99.90;;;;;;5074779;28;19912;-75
2022/05/19 11:32:29;;;;;;;;;;;13.50;99.90;;;;;;5074990;28;19909;-75
2022/05/19 11:34:58;;;;;;;;;;;13.60;99.90;;;;;;5074794;28;19915;-75
2022/05/19 11:37:31;;;;;;;;;;;13.60;99.90;;;;;;5074606;28;19998;-75
2022/05/19 11:39:58;;;;;;;;;;;13.70;99.90;;;;;;5074883;28;19915;-76
2022/05/19 11:42:38;;;;;;;;;;;13.70;99.90;;;;;;5074764;28;19908;-75
2022/05/19 11:45:08;;;;;;;;;;;13.70;99.90;;;;;;5074636;28;19908;-76
2022/05/19 11:56:09;;;;;;;;;;;13.50;99.90;;;;;;5081793;28;19914;-76
2022/05/19 11:58:37;;;;;;;;;;;13.50;99.90;;;;;;5076833;28;19912;-76
2022/05/19 12:01:09;;;;;;;;;;;13.50;99.90;;;;;;5074533;28;19940;-76
2022/05/19 12:03:42;;;;;;;;;;;13.50;99.90;;;;;;5074284;28;19916;-77
2022/05/19 12:06:17;;;;;;;;;;;13.40;99.90;;;;;;5074242;28;19909;-75
2022/05/19 12:09:04;;;;;;;;;;;13.40;99.90;;;;;;5074331;28;19917;-76
2022/05/19 12:11:45;;;;;;;;;;;13.40;99.90;;;;;;5074152;28;19931;-77
2022/05/19 12:14:16;;;;;;;;;;;13.40;99.90;;;;;;5074374;28;19912;-77
2022/05/19 12:16:48;;;;;;;;;;;13.40;99.90;;;;;;5074251;28;19908;-77
2022/05/19 12:19:33;;;;;;;;;;;13.30;99.90;;;;;;5074003;28;19908;-78
2022/05/19 12:22:00;;;;;;;;;;;13.40;99.90;;;;;;5073894;28;19909;-78
2022/05/19 12:24:30;;;;;;;;;;;13.40;99.90;;;;;;5072755;28;19915;-76
2022/05/19 12:27:01;;;;;;;;;;;13.40;99.90;;;;;;5074069;28;19908;-76
2022/05/19 12:29:30;;;;;;;;;;;13.40;99.90;;;;;;5074072;28;20353;-77
2022/05/19 12:32:06;;;;;;;;;;;13.50;99.90;;;;;;5077478;28;19908;-77
2022/05/19 12:34:33;;;;;;;;;;;13.40;99.90;;;;;;5092996;28;19908;-76
2022/05/19 12:37:06;;;;;;;;;;;13.30;99.90;;;;;;5094036;28;19909;-76
2022/05/19 12:39:51;;;;;;;;;;;13.30;99.90;;;;;;5093694;28;19912;-78
2022/05/19 12:42:18;;;;;;;;;;;13.30;99.90;;;;;;5094057;28;19908;-77
2022/05/19 12:44:51;;;;;;;;;;;13.20;99.90;;;;;;5093862;28;19908;-76
2022/05/19 12:47:30;;;;;;;;;;;13.10;99.90;;;;;;5093484;28;20341;-78
2022/05/19 12:50:07;;;;;;;;;;;13.10;99.90;;;;;;5093634;28;19916;-76
2022/05/19 12:53:01;;;;;;;;;;;13.00;99.90;;;;;;5093691;28;19928;-77
2022/05/19 12:55:44;;;;;;;;;;;13.00;99.90;;;;;;5085511;28;19999;-76
2022/05/19 12:58:30;;;;;;;;;;;12.90;99.90;;;;;;5093726;28;19912;-76
2022/05/19 13:00:57;;;;;;;;;;;12.90;99.90;;;;;;5093213;28;19908;-78
2022/05/19 13:03:25;;;;;;;;;;;12.90;99.90;;;;;;5093760;28;19995;-78
2022/05/19 13:05:53;;;;;;;;;;;12.80;99.90;;;;;;5093342;28;20255;-78
2022/05/19 13:08:35;;;;;;;;;;;12.80;99.90;;;;;;5093399;28;19916;-76
2022/05/19 13:11:07;;;;;;;;;;;12.70;99.90;;;;;;5093583;28;19965;-80
2022/05/19 13:13:39;;;;;;;;;;;12.70;99.90;;;;;;5093439;28;19908;-78
2022/05/19 13:16:25;;;;;;;;;;;12.70;99.90;;;;;;5092914;28;19912;-78
2022/05/19 13:18:59;;;;;;;;;;;12.60;99.90;;;;;;5093402;28;19958;-79
2022/05/19 13:21:29;;;;;;;;;;;12.60;99.90;;;;;;5093402;28;20354;-79
2022/05/19 13:23:56;;;;;;;;;;;12.50;99.90;;;;;;5093392;28;19989;-78
2022/05/19 13:26:25;;;;;;;;;;;12.50;99.90;;;;;;5093382;28;19909;-77
2022/05/19 13:32:03;;;;;;;;;;;12.50;99.90;;;;;;5093156;28;20381;-77
2022/05/19 13:34:48;;;;;;;;;;;12.50;99.90;;;;;;5093599;28;20012;-77
2022/05/19 13:37:29;;;;;;;;;;;12.50;99.90;;;;;;5093277;28;19908;-78
2022/05/19 13:40:14;;;;;;;;;;;12.40;99.90;;;;;;5093345;28;19931;-77
2022/05/19 13:42:45;;;;;;;;;;;12.40;99.90;;;;;;5093496;28;19908;-79
2022/05/19 13:45:16;;;;;;;;;;;12.30;99.90;;;;;;5093283;28;19973;-77
2022/05/19 13:47:43;;;;;;;;;;;12.30;99.90;;;;;;5093046;28;19908;-77
2022/05/19 13:50:15;;;;;;;;;;;12.30;99.90;;;;;;5093015;28;19920;-75
2022/05/19 13:52:44;;;;;;;;;;;12.30;99.90;;;;;;5096398;28;19948;-75
2022/05/19 13:55:22;;;;;;;;;;;12.20;99.90;;;;;;5097357;28;19908;-75
2022/05/19 13:57:52;;;;;;;;;;;12.30;99.90;;;;;;5097054;28;20416;-75
2022/05/19 14:00:19;;;;;;;;;;;12.20;99.90;;;;;;5097175;28;19916;-75
2022/05/19 14:02:46;;;;;;;;;;;12.30;99.90;;;;;;5097205;28;19915;-76
2022/05/19 14:05:26;;;;;;;;;;;12.20;99.90;;;;;;5097419;28;19916;-75
2022/05/19 14:07:53;;;;;;;;;;;12.20;99.90;;;;;;5097083;28;20289;-76
2022/05/19 14:10:23;;;;;;;;;;;12.20;99.90;;;;;;5098272;28;19960;-77
2022/05/19 14:12:54;;;;;;;;;;;12.20;99.90;;;;;;5097484;28;19908;-79
2022/05/19 14:15:31;;;;;;;;;;;12.10;99.90;;;;;;5097040;28;19908;-78
2022/05/19 14:18:01;;;;;;;;;;;12.10;99.90;;;;;;5097370;28;19919;-79
2022/05/19 14:20:31;;;;;;;;;;;12.00;99.90;;;;;;5096654;28;19951;-80
2022/05/19 14:22:58;;;;;;;;;;;12.00;99.90;;;;;;5096827;28;20350;-79
2022/05/19 14:25:27;;;;;;;;;;;12.00;99.90;;;;;;5096642;28;19909;-78
2022/05/19 14:27:59;;;;;;;;;;;12.00;99.90;;;;;;5096555;28;19916;-78
2022/05/19 14:30:29;;;;;;;;;;;12.00;99.90;;;;;;5096632;28;19913;-79
2022/05/19 14:33:04;;;;;;;;;;;12.00;99.90;;;;;;5096534;28;19909;-80
2022/05/19 14:35:54;;;;;;;;;;;12.00;99.90;;;;;;5096165;28;20385;-77
2022/05/19 14:38:25;;;;;;;;;;;12.00;99.90;;;;;;5096417;28;20272;-79
2022/05/19 14:43:41;;;;;;;;;;;11.90;99.90;;;;;;5096420;28;20382;-78
2022/05/19 14:46:10;;;;;;;;;;;11.90;99.90;;;;;;5096308;28;19908;-78
2022/05/19 14:48:41;;;;;;;;;;;11.80;99.90;;;;;;5096229;28;19923;-78
2022/05/19 14:51:10;;;;;;;;;;;11.80;99.90;;;;;;5096064;28;20397;-79
2022/05/19 14:53:38;;;;;;;;;;;11.70;99.90;;;;;;5095865;28;19920;-79
2022/05/19 14:56:07;;;;;;;;;;;11.70;99.90;;;;;;5096138;28;20389;-78
2022/05/19 14:59:00;;;;;;;;;;;11.70;99.90;;;;;;5096021;28;19908;-79
2022/05/19 15:01:27;;;;;;;;;;;11.70;99.90;;;;;;5094885;28;19951;-78
2022/05/19 15:03:53;;;;;;;;;;;11.70;99.90;;;;;;5094457;28;19914;-79